createdAt,value
2019-04-05T00:02:18.238Z,69.90
2019-04-05T00:04:46.878Z,68.26
2019-04-05T00:07:15.530Z,68.58
2019-04-05T00:09:44.884Z,69.22
2019-04-05T00:12:14.535Z,68.72
2019-04-05T00:14:43.155Z,69.67
2019-04-05T00:17:11.845Z,71.30
2019-04-05T00:19:40.519Z,68.99
2019-04-05T00:22:09.164Z,71.32
2019-04-05T00:24:37.891Z,70.63
2019-04-05T00:27:06.630Z,69.70
2019-04-05T00:29:35.480Z,71.74
2019-04-05T00:32:04.426Z,73.01
2019-04-05T00:34:32.978Z,73.63
2019-04-05T00:37:01.720Z,74.56
2019-04-05T00:39:30.482Z,74.18
2019-04-05T00:41:59.129Z,72.42
2019-04-05T00:44:27.815Z,74.47
2019-04-05T00:46:56.559Z,71.54
2019-04-05T00:49:25.278Z,73.11
2019-04-05T00:51:53.926Z,73.17
2019-04-05T00:54:22.576Z,72.34
2019-04-05T00:56:51.251Z,75.68
2019-04-05T00:59:20.190Z,72.53
2019-04-05T01:01:49.039Z,72.50
2019-04-05T01:04:17.701Z,73.66
2019-04-05T01:06:46.393Z,74.39
2019-04-05T01:09:15.066Z,74.05
2019-04-05T01:11:43.839Z,70.36
2019-04-05T01:14:12.788Z,72.64
2019-04-05T01:16:41.390Z,72.56
2019-04-05T01:19:10.337Z,72.37
2019-04-05T01:21:39.390Z,72.12
2019-04-05T01:24:10.474Z,71.59
2019-04-05T01:26:40.615Z,73.69
2019-04-05T01:29:09.828Z,75.25
2019-04-05T01:31:38.391Z,75.07
2019-04-05T01:34:07.068Z,73.99
2019-04-05T01:36:35.612Z,74.23
2019-04-05T01:39:05.586Z,73.28
2019-04-05T01:41:35.141Z,73.46
2019-04-05T01:44:03.844Z,74.79
2019-04-05T01:46:33.700Z,73.93
2019-04-05T01:49:02.386Z,74.09
2019-04-05T01:51:31.036Z,74.09
2019-04-05T01:53:59.718Z,74.79
2019-04-05T01:56:29.399Z,73.85
2019-04-05T01:58:58.159Z,73.75
2019-04-05T02:01:27.119Z,74.27
2019-04-05T02:03:56.024Z,73.90
2019-04-05T02:06:24.791Z,75.52
2019-04-05T02:08:53.362Z,73.61
2019-04-05T02:11:22.110Z,74.21
2019-04-05T02:13:50.764Z,72.10
2019-04-05T02:16:19.412Z,73.08
2019-04-05T02:18:48.160Z,72.79
2019-04-05T02:21:16.827Z,71.32
2019-04-05T02:23:45.384Z,74.07
2019-04-05T02:26:13.920Z,74.56
2019-04-05T02:28:42.578Z,74.14
2019-04-05T02:31:11.236Z,75.21
2019-04-05T02:33:39.983Z,70.86
2019-04-05T02:36:08.730Z,74.22
2019-04-05T02:38:37.432Z,74.39
2019-04-05T02:41:07.281Z,72.51
2019-04-05T02:43:37.922Z,73.06
2019-04-05T02:46:22.784Z,75.27
2019-04-05T02:48:42.076Z,74.59
2019-04-05T02:51:13.894Z,73.58
2019-04-05T02:53:44.045Z,72.39
2019-04-05T02:56:12.807Z,70.44
2019-04-05T02:58:43.163Z,70.37
2019-04-05T03:01:11.979Z,71.20
2019-04-05T03:03:41.071Z,72.14
2019-04-05T03:06:09.833Z,71.50
2019-04-05T03:08:40.255Z,71.82
2019-04-05T03:11:15.627Z,73.53
2019-04-05T03:13:49.580Z,74.39
2019-04-05T03:16:38.546Z,75.04
2019-04-05T03:19:04.256Z,74.37
2019-04-05T03:21:35.499Z,74.42
2019-04-05T03:24:05.275Z,76.16
2019-04-05T03:26:38.087Z,76.39
2019-04-05T03:29:08.983Z,77.06
2019-04-05T03:31:38.538Z,76.48
2019-04-05T03:34:07.814Z,75.91
2019-04-05T03:36:38.005Z,74.32
2019-04-05T03:39:07.505Z,74.84
2019-04-05T03:41:36.626Z,76.27
2019-04-05T03:44:07.364Z,76.63
2019-04-05T03:46:36.109Z,76.00
2019-04-05T03:49:05.267Z,78.19
2019-04-05T03:51:34.701Z,74.70
2019-04-05T03:54:03.749Z,76.37
2019-04-05T03:56:33.334Z,77.09
2019-04-05T03:59:02.564Z,78.21
2019-04-05T04:01:31.407Z,77.74
2019-04-05T04:04:00.059Z,77.62
2019-04-05T04:06:28.755Z,78.62
2019-04-05T04:08:57.616Z,78.62
2019-04-05T04:11:26.351Z,76.94
2019-04-05T04:13:55.281Z,76.23
2019-04-05T04:16:24.214Z,77.42
2019-04-05T04:18:52.873Z,77.95
2019-04-05T04:22:07.265Z,79.69
2019-04-05T04:24:36.729Z,77.10
2019-04-05T04:27:05.504Z,78.31
2019-04-05T04:29:34.077Z,76.91
2019-04-05T04:32:02.738Z,76.66
2019-04-05T04:34:31.576Z,77.57
2019-04-05T04:37:00.529Z,77.82
2019-04-05T04:39:29.314Z,79.38
2019-04-05T04:41:58.304Z,78.79
2019-04-05T04:44:27.181Z,76.48
2019-04-05T04:46:56.237Z,77.00
2019-04-05T04:49:25.338Z,77.54
2019-04-05T04:51:54.351Z,78.13
2019-04-05T04:54:23.214Z,79.25
2019-04-05T04:56:52.368Z,79.06
2019-04-05T04:59:21.931Z,79.14
2019-04-05T05:01:50.639Z,77.23
2019-04-05T05:04:19.680Z,77.15
2019-04-05T05:06:49.070Z,79.32
2019-04-05T05:09:18.614Z,79.82
2019-04-05T05:11:47.615Z,78.11
2019-04-05T05:14:16.680Z,76.55
2019-04-05T05:16:45.338Z,76.84
2019-04-05T05:19:14.515Z,79.58
2019-04-05T05:21:43.170Z,77.02
2019-04-05T05:24:12.167Z,77.59
2019-04-05T05:26:40.796Z,75.92
2019-04-05T05:29:09.467Z,77.00
2019-04-05T05:31:38.328Z,77.47
2019-04-05T05:34:07.200Z,79.91
2019-04-05T05:36:35.861Z,77.15
2019-04-05T05:39:06.935Z,77.17
2019-04-05T05:41:35.712Z,78.60
2019-04-05T05:44:04.848Z,77.96
2019-04-05T05:46:33.617Z,78.44
2019-04-05T05:49:02.342Z,78.08
2019-04-05T05:51:31.473Z,76.13
2019-04-05T05:54:00.148Z,76.26
2019-04-05T05:56:28.705Z,76.71
2019-04-05T05:58:59.543Z,76.09
2019-04-05T06:01:28.393Z,74.62
2019-04-05T06:03:57.152Z,73.71
2019-04-05T06:06:25.820Z,74.70
2019-04-05T06:08:54.524Z,74.60
2019-04-05T06:11:23.186Z,77.06
2019-04-05T06:13:51.764Z,78.25
2019-04-05T06:16:20.539Z,78.78
2019-04-05T06:18:49.096Z,78.61
2019-04-05T06:21:17.867Z,77.11
2019-04-05T06:23:46.527Z,75.29
2019-04-05T06:26:15.372Z,73.95
2019-04-05T06:28:44.111Z,73.55
2019-04-05T06:31:12.887Z,74.55
2019-04-05T06:33:41.591Z,69.26
2019-04-05T06:36:10.267Z,70.22
2019-04-05T06:38:39.027Z,69.04
2019-04-05T06:41:07.641Z,68.37
2019-04-05T06:43:36.318Z,70.81
2019-04-05T06:46:05.255Z,67.87
2019-04-05T06:48:34.421Z,68.85
2019-04-05T06:51:03.324Z,68.76
2019-04-05T06:53:32.235Z,65.03
2019-04-05T06:56:01.206Z,65.53
2019-04-05T06:58:30.004Z,68.37
2019-04-05T07:00:58.776Z,71.16
2019-04-05T07:03:27.499Z,67.76
2019-04-05T07:05:56.070Z,68.82
2019-04-05T07:08:24.895Z,64.80
2019-04-05T07:10:53.788Z,65.31
2019-04-05T07:13:22.475Z,66.86
2019-04-05T07:15:51.317Z,62.93
2019-04-05T07:18:32.598Z,63.22
2019-04-05T07:20:50.536Z,63.52
2019-04-05T07:23:19.255Z,64.82
2019-04-05T07:25:47.974Z,65.99
2019-04-05T07:28:16.648Z,66.46
2019-04-05T07:30:45.343Z,64.07
2019-04-05T07:33:14.101Z,62.57
2019-04-05T07:35:42.815Z,63.54
2019-04-05T07:38:11.396Z,64.35
2019-04-05T07:40:40.147Z,62.04
2019-04-05T07:43:08.831Z,63.00
2019-04-05T07:45:37.485Z,61.93
2019-04-05T07:48:06.372Z,60.61
2019-04-05T07:50:35.004Z,59.26
2019-04-05T07:53:03.678Z,57.93
2019-04-05T07:55:32.471Z,58.54
2019-04-05T07:58:01.202Z,57.37
2019-04-05T08:00:53.985Z,56.36
2019-04-05T08:03:23.243Z,56.06
2019-04-05T08:05:53.423Z,59.15
2019-04-05T08:08:29.831Z,61.87
2019-04-05T08:10:58.838Z,60.12
2019-04-05T08:13:29.346Z,57.48
2019-04-05T08:16:01.190Z,55.70
2019-04-05T08:18:29.598Z,57.42
2019-04-05T08:20:58.130Z,56.70
2019-04-05T08:23:26.687Z,56.65
2019-04-05T08:25:55.354Z,56.03
2019-04-05T08:28:23.963Z,57.29
2019-04-05T08:30:52.632Z,58.04
2019-04-05T08:33:21.490Z,56.48
2019-04-05T08:35:50.199Z,56.58
2019-04-05T08:38:18.991Z,55.46
2019-04-05T08:40:47.612Z,56.74
2019-04-05T08:43:16.193Z,54.31
2019-04-05T08:45:45.109Z,53.16
2019-04-05T08:48:13.882Z,53.08
2019-04-05T08:50:42.803Z,53.24
2019-04-05T08:53:11.789Z,55.43
2019-04-05T08:55:40.489Z,55.97
2019-04-05T08:58:09.086Z,54.14
2019-04-05T09:00:37.645Z,54.04
2019-04-05T09:03:06.428Z,54.27
2019-04-05T09:05:35.261Z,54.17
2019-04-05T09:08:04.246Z,53.45
2019-04-05T09:10:32.956Z,53.04
2019-04-05T09:13:01.625Z,49.04
2019-04-05T09:15:30.184Z,48.75
2019-04-05T09:17:58.846Z,48.92
2019-04-05T09:20:27.413Z,48.38
2019-04-05T09:22:56.109Z,47.10
2019-04-05T09:25:24.864Z,46.39
2019-04-05T09:27:53.527Z,45.35
2019-04-05T09:30:22.189Z,43.00
2019-04-05T09:32:50.754Z,42.34
2019-04-05T09:35:19.540Z,41.13
2019-04-05T09:37:48.209Z,40.44
2019-04-05T09:40:17.180Z,40.90
2019-04-05T09:42:45.851Z,40.70
2019-04-05T09:45:14.634Z,42.61
2019-04-05T09:47:43.426Z,43.52
2019-04-05T09:50:12.187Z,44.39
2019-04-05T09:52:40.789Z,45.32
2019-04-05T09:55:09.575Z,43.60
2019-04-05T09:57:38.149Z,42.36
2019-04-05T10:00:12.972Z,42.86
2019-04-05T10:02:41.628Z,41.09
2019-04-05T10:05:10.282Z,40.33
2019-04-05T10:07:53.864Z,39.72
2019-04-05T10:10:09.888Z,39.19
2019-04-05T10:12:38.765Z,39.36
2019-04-05T10:15:07.779Z,39.47
2019-04-05T10:17:36.336Z,38.75
2019-04-05T10:20:06.378Z,38.84
2019-04-05T10:22:35.085Z,38.98
2019-04-05T10:25:04.242Z,39.82
2019-04-05T10:27:32.925Z,39.18
2019-04-05T10:30:01.568Z,38.72
2019-04-05T10:32:30.196Z,38.65
2019-04-05T10:34:58.983Z,39.48
2019-04-05T10:37:27.719Z,39.04
2019-04-05T10:39:56.378Z,38.28
2019-04-05T10:42:31.075Z,38.00
2019-04-05T10:44:59.978Z,38.56
2019-04-05T10:47:28.957Z,38.66
2019-04-05T10:50:03.287Z,38.60
2019-04-05T10:52:28.130Z,38.41
2019-04-05T10:54:58.082Z,37.97
2019-04-05T10:57:27.007Z,38.49
2019-04-05T10:59:55.659Z,38.52
2019-04-05T11:02:24.396Z,38.63
2019-04-05T11:04:53.071Z,38.42
2019-04-05T11:07:21.830Z,37.94
2019-04-05T11:09:53.327Z,38.65
2019-04-05T11:12:21.144Z,38.93
2019-04-05T11:14:49.921Z,38.48
2019-04-05T11:17:18.680Z,37.75
2019-04-05T11:19:47.334Z,37.55
2019-04-05T11:22:15.927Z,37.53
2019-04-05T11:24:44.470Z,37.88
2019-04-05T11:27:13.134Z,39.00
2019-04-05T11:29:41.893Z,38.04
2019-04-05T11:32:17.787Z,38.03
2019-04-05T11:34:46.624Z,37.97
2019-04-05T11:37:16.844Z,37.76
2019-04-05T11:39:48.615Z,36.99
2019-04-05T11:42:19.597Z,36.72
2019-04-05T11:44:53.501Z,37.19
2019-04-05T11:47:21.106Z,37.37
2019-04-05T11:49:51.387Z,36.45
2019-04-05T11:52:19.840Z,36.91
2019-04-05T11:54:48.527Z,36.53
2019-04-05T11:57:17.226Z,36.64
2019-04-05T11:59:48.580Z,36.04
2019-04-05T12:02:23.508Z,36.66
2019-04-05T12:04:53.620Z,35.99
2019-04-05T12:07:26.335Z,36.34
2019-04-05T12:09:53.039Z,36.01
2019-04-05T12:12:21.695Z,35.82
2019-04-05T12:14:50.448Z,34.79
2019-04-05T12:17:19.011Z,37.40
2019-04-05T12:19:47.667Z,36.93
2019-04-05T12:22:16.413Z,36.54
2019-04-05T12:24:47.494Z,37.13
2019-04-05T12:27:15.541Z,36.28
2019-04-05T12:29:44.003Z,35.20
2019-04-05T12:32:13.539Z,35.93
2019-04-05T12:34:45.742Z,34.58
2019-04-05T12:37:14.477Z,34.52
2019-04-05T12:39:43.254Z,34.00
2019-04-05T12:42:12.238Z,33.98
2019-04-05T12:44:44.860Z,34.01
2019-04-05T12:47:13.921Z,33.29
2019-04-05T12:49:45.207Z,33.65
2019-04-05T12:52:22.642Z,33.87
2019-04-05T12:54:43.879Z,33.27
2019-04-05T12:57:12.442Z,32.87
2019-04-05T12:59:41.120Z,31.88
2019-04-05T13:02:09.856Z,32.89
2019-04-05T13:04:38.509Z,32.93
2019-04-05T13:07:07.280Z,33.36
2019-04-05T13:09:36.085Z,32.85
2019-04-05T13:12:05.318Z,32.71
2019-04-05T13:14:34.073Z,32.65
2019-04-05T13:17:03.121Z,32.90
2019-04-05T13:19:32.227Z,31.89
2019-04-05T13:22:02.826Z,31.52
2019-04-05T13:24:31.572Z,31.58
2019-04-05T13:27:01.946Z,31.48
2019-04-05T13:29:31.047Z,33.11
2019-04-05T13:31:59.697Z,33.08
2019-04-05T13:34:28.631Z,34.01
2019-04-05T13:36:59.256Z,34.23
2019-04-05T13:39:29.743Z,33.89
2019-04-05T13:41:59.425Z,34.49
2019-04-05T13:44:29.465Z,33.73
2019-04-05T13:46:59.883Z,32.33
2019-04-05T13:49:28.582Z,31.77
2019-04-05T13:51:57.199Z,31.00
2019-04-05T13:54:26.038Z,31.02
2019-04-05T13:56:54.821Z,32.12
2019-04-05T13:59:23.597Z,31.57
2019-04-05T14:02:05.310Z,30.54
2019-04-05T14:04:23.058Z,30.23
2019-04-05T14:06:53.597Z,30.43
2019-04-05T14:09:22.619Z,30.21
2019-04-05T14:11:51.366Z,30.04
2019-04-05T14:14:20.048Z,30.65
2019-04-05T14:16:48.729Z,30.52
2019-04-05T14:19:19.200Z,29.42
2019-04-05T14:21:48.487Z,30.08
2019-04-05T14:24:17.392Z,31.15
2019-04-05T14:26:46.656Z,30.30
2019-04-05T14:29:15.462Z,30.31
2019-04-05T14:31:44.090Z,31.28
2019-04-05T14:34:12.971Z,30.37
2019-04-05T14:36:41.529Z,30.98
2019-04-05T14:39:10.593Z,30.24
2019-04-05T14:41:39.563Z,30.19
2019-04-05T14:44:08.542Z,31.42
2019-04-05T14:46:38.507Z,31.03
2019-04-05T14:49:07.366Z,32.72
2019-04-05T14:51:36.023Z,31.96
2019-04-05T14:54:04.784Z,30.86
2019-04-05T14:56:33.779Z,30.77
2019-04-05T14:59:02.423Z,31.67
2019-04-05T15:01:31.170Z,29.02
2019-04-05T15:03:59.821Z,31.50
2019-04-05T15:06:28.465Z,34.24
2019-04-05T15:08:57.564Z,32.59
2019-04-05T15:11:28.755Z,34.20
2019-04-05T15:13:57.141Z,32.73
2019-04-05T15:16:25.795Z,33.66
2019-04-05T15:18:54.560Z,33.87
2019-04-05T15:21:23.316Z,33.60
2019-04-05T15:23:52.180Z,34.15
2019-04-05T15:26:21.494Z,33.47
2019-04-05T15:28:50.422Z,34.10
2019-04-05T15:31:18.976Z,35.27
2019-04-05T15:33:47.635Z,38.73
2019-04-05T15:36:16.295Z,33.69
2019-04-05T15:38:44.954Z,33.94
2019-04-05T15:41:13.833Z,32.96
2019-04-05T15:43:42.368Z,34.96
2019-04-05T15:46:11.026Z,35.55
2019-04-05T15:48:40.079Z,39.44
2019-04-05T15:51:08.735Z,36.96
2019-04-05T15:53:37.381Z,37.11
2019-04-05T15:56:06.034Z,36.84
2019-04-05T15:58:34.988Z,36.39
2019-04-05T16:01:04.955Z,36.73
2019-04-05T16:03:36.741Z,37.11
2019-04-05T16:06:04.869Z,38.79
2019-04-05T16:08:33.408Z,37.71
2019-04-05T16:11:02.273Z,37.41
2019-04-05T16:13:31.067Z,38.27
2019-04-05T16:16:00.104Z,37.92
2019-04-05T16:18:28.672Z,38.99
2019-04-05T16:20:57.305Z,38.59
2019-04-05T16:23:26.168Z,38.31
2019-04-05T16:25:54.820Z,39.59
2019-04-05T16:28:23.583Z,39.52
2019-04-05T16:30:52.219Z,39.89
2019-04-05T16:33:20.954Z,38.43
2019-04-05T16:35:49.556Z,39.78
2019-04-05T16:38:18.326Z,39.81
2019-04-05T16:40:46.975Z,41.52
2019-04-05T16:43:15.625Z,38.92
2019-04-05T16:45:44.592Z,38.94
2019-04-05T16:48:13.279Z,39.47
2019-04-05T16:50:42.537Z,39.10
2019-04-05T16:53:11.420Z,39.21
2019-04-05T16:55:39.994Z,42.43
2019-04-05T16:58:08.646Z,40.64
2019-04-05T17:00:37.408Z,40.98
2019-04-05T17:03:06.356Z,39.42
2019-04-05T17:05:35.139Z,41.03
2019-04-05T17:08:04.086Z,44.45
2019-04-05T17:10:32.835Z,39.93
2019-04-05T17:13:01.783Z,42.34
2019-04-05T17:15:31.026Z,40.27
2019-04-05T17:17:59.669Z,42.97
2019-04-05T17:20:28.223Z,39.87
2019-04-05T17:22:58.432Z,42.08
2019-04-05T17:25:27.425Z,40.19
2019-04-05T17:27:56.273Z,42.61
2019-04-05T17:30:24.829Z,40.88
2019-04-05T17:32:54.174Z,40.43
2019-04-05T17:35:22.854Z,41.68
2019-04-05T17:37:51.602Z,41.88
2019-04-05T17:40:20.262Z,40.06
2019-04-05T17:42:49.200Z,40.79
2019-04-05T17:45:17.896Z,43.59
2019-04-05T17:47:47.047Z,41.65
2019-04-05T17:50:28.634Z,41.13
2019-04-05T17:53:10.933Z,44.62
2019-04-05T17:55:28.172Z,43.86
2019-04-05T17:57:59.132Z,40.73
2019-04-05T18:00:27.878Z,41.33
2019-04-05T18:02:56.623Z,41.99
2019-04-05T18:05:25.361Z,41.73
2019-04-05T18:07:54.712Z,41.02
2019-04-05T18:10:23.470Z,40.93
2019-04-05T18:12:52.122Z,40.90
2019-04-05T18:15:21.491Z,44.36
2019-04-05T18:17:50.242Z,41.84
2019-04-05T18:20:18.907Z,43.41
2019-04-05T18:22:47.677Z,42.81
2019-04-05T18:25:16.540Z,41.85
2019-04-05T18:27:45.305Z,42.01
2019-04-05T18:30:13.858Z,43.07
2019-04-05T18:32:42.499Z,42.22
2019-04-05T18:35:11.183Z,44.03
2019-04-05T18:37:40.048Z,43.39
2019-04-05T18:40:09.093Z,44.72
2019-04-05T18:42:37.758Z,45.55
2019-04-05T18:45:06.930Z,43.40
2019-04-05T18:47:35.710Z,43.87
2019-04-05T18:50:04.962Z,44.26
2019-04-05T18:52:33.919Z,45.84
2019-04-05T18:55:02.903Z,45.70
2019-04-05T18:57:31.940Z,45.21
2019-04-05T19:00:00.637Z,43.91
2019-04-05T19:02:29.585Z,43.76
2019-04-05T19:04:58.232Z,43.62
2019-04-05T19:07:26.939Z,43.78
2019-04-05T19:09:55.785Z,43.92
2019-04-05T19:12:24.363Z,44.75
2019-04-05T19:14:53.228Z,44.33
2019-04-05T19:17:24.230Z,47.67
2019-04-05T19:19:52.952Z,44.19
2019-04-05T19:22:21.599Z,44.69
2019-04-05T19:24:50.381Z,44.75
2019-04-05T19:27:18.920Z,45.84
2019-04-05T19:29:47.570Z,44.29
2019-04-05T19:49:50.713Z,55.84
2019-04-05T19:52:19.314Z,57.55
2019-04-05T19:54:48.166Z,59.46
2019-04-05T19:57:16.916Z,59.17
2019-04-05T19:59:45.574Z,60.94
2019-04-05T20:02:14.139Z,59.77
2019-04-05T20:04:42.806Z,62.52
2019-04-05T20:07:11.658Z,62.97
2019-04-05T20:09:40.618Z,63.43
2019-04-05T20:12:10.077Z,62.03
2019-04-05T20:14:38.837Z,63.46
2019-04-05T20:17:07.492Z,64.50
2019-04-05T20:19:36.164Z,62.11
2019-04-05T20:22:04.938Z,63.45
2019-04-05T20:24:33.587Z,66.88
2019-04-05T20:27:02.224Z,66.53
2019-04-05T20:29:30.892Z,65.82
2019-04-05T20:31:59.524Z,64.96
2019-04-05T20:34:28.169Z,64.57
2019-04-05T20:36:56.722Z,64.51
2019-04-05T20:39:25.421Z,64.83
2019-04-05T20:41:54.160Z,65.29
2019-04-05T20:44:22.695Z,63.93
2019-04-05T20:46:51.367Z,65.18
2019-04-05T20:49:20.031Z,64.10
2019-04-05T20:51:48.717Z,62.52
2019-04-05T20:54:24.540Z,64.41
2019-04-05T20:56:48.050Z,66.11
2019-04-05T20:59:16.798Z,65.35
2019-04-05T21:01:45.688Z,66.17
2019-04-05T21:04:14.254Z,65.87
2019-04-05T21:06:42.899Z,65.73
2019-04-05T21:09:11.686Z,65.80
2019-04-05T21:11:40.327Z,65.61
2019-04-05T21:14:08.972Z,65.70
2019-04-05T21:16:37.638Z,67.00
2019-04-05T21:19:06.482Z,67.97
2019-04-05T21:21:35.034Z,67.28
2019-04-05T21:24:03.862Z,64.61
2019-04-05T21:26:32.517Z,65.49
2019-04-05T21:29:01.263Z,65.96
2019-04-05T21:31:29.954Z,68.06
2019-04-05T21:33:58.587Z,66.97
2019-04-05T21:36:27.334Z,66.22
2019-04-05T21:38:55.979Z,64.68
2019-04-05T21:41:24.555Z,66.92
2019-04-05T21:43:53.294Z,65.17
2019-04-05T21:46:21.862Z,66.95
2019-04-05T21:48:50.651Z,68.41
2019-04-05T21:51:19.414Z,68.35
2019-04-05T21:53:48.067Z,68.48
2019-04-05T21:56:16.732Z,67.74
2019-04-05T21:58:45.398Z,67.44
2019-04-05T22:01:14.251Z,69.49
2019-04-05T22:03:43.018Z,69.45
2019-04-05T22:06:11.558Z,68.55
2019-04-05T22:08:40.200Z,68.48
2019-04-05T22:11:08.767Z,69.96
2019-04-05T22:13:37.420Z,70.48
2019-04-05T22:16:05.972Z,69.18
2019-04-05T22:18:34.511Z,70.52
2019-04-05T22:21:03.172Z,70.94
2019-04-05T22:23:32.024Z,73.11
2019-04-05T22:26:00.686Z,72.63
2019-04-05T22:28:29.238Z,71.69
2019-04-05T22:30:57.998Z,72.82
2019-04-05T22:33:26.549Z,72.65
2019-04-05T22:35:55.191Z,73.62
2019-04-05T22:38:23.864Z,75.54
2019-04-05T22:40:52.425Z,74.18
2019-04-05T22:43:20.998Z,74.16
2019-04-05T22:45:49.571Z,72.83
2019-04-05T22:48:18.216Z,75.31
2019-04-05T22:50:46.783Z,73.53
2019-04-05T22:53:15.422Z,72.93
2019-04-05T22:55:44.083Z,74.12
2019-04-05T22:58:12.552Z,71.70
2019-04-05T23:00:41.227Z,71.39
2019-04-05T23:03:09.872Z,72.61
2019-04-05T23:05:38.592Z,74.41
2019-04-05T23:08:07.331Z,75.07
2019-04-05T23:10:35.913Z,73.00
2019-04-05T23:13:04.486Z,72.70
2019-04-05T23:15:33.227Z,73.62
2019-04-05T23:18:01.918Z,72.89
2019-04-05T23:20:30.594Z,72.91
2019-04-05T23:22:59.342Z,70.51
2019-04-05T23:25:27.897Z,72.26
2019-04-05T23:27:56.663Z,72.31
2019-04-05T23:30:26.129Z,72.83
2019-04-05T23:32:54.796Z,74.29
2019-04-05T23:35:23.366Z,74.75
2019-04-05T23:37:52.041Z,77.35
2019-04-05T23:40:20.670Z,75.96
2019-04-05T23:42:49.319Z,73.77
2019-04-05T23:45:17.982Z,76.41
2019-04-05T23:47:46.631Z,74.97
2019-04-05T23:50:15.307Z,77.70
2019-04-05T23:52:44.057Z,72.91
2019-04-05T23:55:12.887Z,75.02
2019-04-05T23:57:41.643Z,77.61
